createdAt,value
2019-04-10T00:00:55.113Z,37.2
2019-04-10T00:02:54.202Z,37.7
2019-04-10T00:04:54.089Z,36
2019-04-10T00:08:54.720Z,37.5
2019-04-10T00:10:54.329Z,37.1
2019-04-10T00:12:54.139Z,37.7
2019-04-10T00:14:53.626Z,39.2
2019-04-10T00:16:54.251Z,39.5
2019-04-10T00:18:53.983Z,39.1
2019-04-10T00:20:53.297Z,39.4
2019-04-10T00:22:53.061Z,41.1
2019-04-10T00:24:52.980Z,40.4
2019-04-10T00:26:52.879Z,41.3
2019-04-10T00:28:53.712Z,41.9
2019-04-10T00:30:53.504Z,39.8
2019-04-10T00:34:52.608Z,40.5
2019-04-10T00:36:53.262Z,38.3
2019-04-10T00:38:53.852Z,40.4
2019-04-10T00:40:53.583Z,41.5
2019-04-10T00:42:51.908Z,41.1
2019-04-10T00:44:52.194Z,34.9
2019-04-10T00:46:52.585Z,43
2019-04-10T00:48:52.398Z,43.1
2019-04-10T00:50:51.365Z,40.3
2019-04-10T00:52:52.532Z,42.3
2019-04-10T00:54:51.174Z,37.5
2019-04-10T00:56:51.077Z,43.2
2019-04-10T00:58:51.275Z,41.3
2019-04-10T01:00:51.818Z,39.8
2019-04-10T01:02:51.270Z,40.5
2019-04-10T01:04:50.916Z,42.8
2019-04-10T01:06:50.525Z,41.6
2019-04-10T01:08:51.026Z,43.5
2019-04-10T01:10:50.529Z,41.6
2019-04-10T01:12:50.271Z,45
2019-04-10T01:14:50.032Z,42.2
2019-04-10T01:16:50.013Z,39.9
2019-04-10T01:18:49.830Z,40.4
2019-04-10T01:20:50.161Z,43
2019-04-10T01:22:49.837Z,41.6
2019-04-10T01:24:50.214Z,42.9
2019-04-10T01:26:49.624Z,40.8
2019-04-10T01:28:49.502Z,41.4
2019-04-10T01:30:49.191Z,36.6
2019-04-10T01:32:50.161Z,32.7
2019-04-10T01:34:49.722Z,42.2
2019-04-10T01:36:48.853Z,42.3
2019-04-10T01:38:49.480Z,43.3
2019-04-10T01:40:48.905Z,43.5
2019-04-10T01:43:02.728Z,43.2
2019-04-10T01:44:49.026Z,41.3
2019-04-10T01:46:48.678Z,43.6
2019-04-10T01:48:49.108Z,42.6
2019-04-10T01:50:48.127Z,41.5
2019-04-10T01:52:49.070Z,42.3
2019-04-10T01:54:47.915Z,43.4
2019-04-10T01:56:47.995Z,41.7
2019-04-10T01:58:47.782Z,44.6
2019-04-10T02:00:48.221Z,43
2019-04-10T02:02:47.743Z,44.6
2019-04-10T02:04:50.893Z,42
2019-04-10T02:06:47.282Z,44.2
2019-04-10T02:08:47.835Z,39.6
2019-04-10T02:10:48.079Z,39.3
2019-04-10T02:12:47.255Z,34.7
2019-04-10T02:14:46.885Z,39.2
2019-04-10T02:16:47.340Z,36.4
2019-04-10T02:18:47.626Z,37
2019-04-10T02:22:47.977Z,32.9
2019-04-10T02:24:47.223Z,36.5
2019-04-10T02:26:46.278Z,39.2
2019-04-10T02:28:47.014Z,36.6
2019-04-10T02:30:46.111Z,36.4
2019-04-10T02:32:48.076Z,34
2019-04-10T02:34:49.129Z,32.4
2019-04-10T02:36:46.907Z,31.2
2019-04-10T02:38:59.464Z,28.4
2019-04-10T02:40:45.683Z,30.8
2019-04-10T02:42:47.161Z,31.1
2019-04-10T02:44:45.904Z,28.8
2019-04-10T02:46:47.336Z,33.1
2019-04-10T02:48:45.333Z,33
2019-04-10T02:50:45.099Z,24.1
2019-04-10T02:52:46.029Z,29.5
2019-04-10T02:54:46.028Z,29.7
2019-04-10T02:56:45.882Z,31.8
2019-04-10T02:58:44.689Z,31
2019-04-10T03:00:46.265Z,31.7
2019-04-10T03:02:45.287Z,29.9
2019-04-10T03:04:44.566Z,27.8
2019-04-10T03:06:45.221Z,29.2
2019-04-10T03:08:59.258Z,31.7
2019-04-10T03:10:49.651Z,30
2019-04-10T03:12:44.322Z,29.8
2019-04-10T03:14:45.966Z,27.9
2019-04-10T03:16:43.820Z,30.6
2019-04-10T03:18:43.501Z,28.7
2019-04-10T03:20:44.643Z,32.3
2019-04-10T03:22:43.306Z,29.6
2019-04-10T03:24:43.185Z,29.5
2019-04-10T03:26:43.068Z,28.1
2019-04-10T03:28:43.571Z,25.6
2019-04-10T03:30:44.323Z,26
2019-04-10T03:32:47.603Z,29.1
2019-04-10T03:34:43.890Z,26.9
2019-04-10T03:36:43.420Z,29
2019-04-10T03:38:55.404Z,27.1
2019-04-10T03:40:43.732Z,29.3
2019-04-10T03:42:43.300Z,30.3
2019-04-10T03:44:43.031Z,28.9
2019-04-10T03:46:44.766Z,31.3
2019-04-10T03:48:42.130Z,30.6
2019-04-10T03:50:41.866Z,30.5
2019-04-10T03:52:43.219Z,26
2019-04-10T03:54:41.621Z,30.5
2019-04-10T03:56:42.548Z,28.8
2019-04-10T03:58:43.938Z,28.4
2019-04-10T04:00:42.469Z,28.8
2019-04-10T04:02:42.096Z,29
2019-04-10T04:04:41.779Z,25.5
2019-04-10T04:06:41.990Z,26.8
2019-04-10T04:08:40.962Z,21.8
2019-04-10T04:10:41.053Z,27
2019-04-10T04:12:40.866Z,23.4
2019-04-10T04:14:40.905Z,24.7
2019-04-10T04:16:41.522Z,26
2019-04-10T04:18:41.491Z,26.3
2019-04-10T04:20:41.256Z,25.9
2019-04-10T04:22:41.196Z,23.6
2019-04-10T04:24:40.512Z,26.4
2019-04-10T04:26:40.445Z,26.5
2019-04-10T04:28:41.858Z,26
2019-04-10T04:30:40.490Z,30.6
2019-04-10T04:32:40.124Z,26.9
2019-04-10T04:34:40.123Z,25.5
2019-04-10T04:36:40.886Z,27.3
2019-04-10T04:38:39.815Z,27.6
2019-04-10T04:40:39.920Z,25.6
2019-04-10T04:42:40.707Z,27.7
2019-04-10T04:44:39.791Z,25.4
2019-04-10T04:46:40.685Z,28.2
2019-04-10T04:48:39.485Z,27.3
2019-04-10T04:50:39.467Z,27.8
2019-04-10T04:52:39.440Z,28.2
2019-04-10T04:54:41.259Z,27
2019-04-10T04:58:39.295Z,25.6
2019-04-10T05:00:39.590Z,26.1
2019-04-10T05:02:39.254Z,27.5
2019-04-10T05:04:39.600Z,27.3
2019-04-10T05:06:39.580Z,27.8
2019-04-10T05:08:39.991Z,27.8
2019-04-10T05:10:39.886Z,27.8
2019-04-10T05:12:38.927Z,27.7
2019-04-10T05:14:39.854Z,27.5
2019-04-10T05:16:39.532Z,27.7
2019-04-10T05:18:39.251Z,25.7
2019-04-10T05:20:45.397Z,27.9
2019-04-10T05:22:39.641Z,31.6
2019-04-10T05:24:38.464Z,27.3
2019-04-10T05:26:38.574Z,28.7
2019-04-10T05:28:38.411Z,28.1
2019-04-10T05:30:38.330Z,26.8
2019-04-10T05:32:38.239Z,27.1
2019-04-10T05:34:38.398Z,27.5
2019-04-10T05:36:38.134Z,25.6
2019-04-10T05:38:38.046Z,27
2019-04-10T05:40:38.510Z,27.2
2019-04-10T05:42:37.976Z,27.7
2019-04-10T05:44:38.205Z,30.7
2019-04-10T05:46:38.788Z,30
2019-04-10T05:48:37.847Z,30.5
2019-04-10T05:50:37.867Z,28.9
2019-04-10T05:52:37.766Z,33.7
2019-04-10T05:54:37.656Z,29.2
2019-04-10T05:56:38.430Z,28.5
2019-04-10T05:58:38.664Z,29
2019-04-10T06:00:37.440Z,29.7
2019-04-10T06:02:37.421Z,29.7
2019-04-10T06:04:37.770Z,29.9
2019-04-10T06:06:37.314Z,29.8
2019-04-10T06:08:37.365Z,28.9
2019-04-10T06:10:37.319Z,30.1
2019-04-10T06:12:37.978Z,27.9
2019-04-10T06:14:38.053Z,27.1
2019-04-10T06:16:37.194Z,29
2019-04-10T06:18:37.575Z,25.8
2019-04-10T06:20:37.601Z,25.7
2019-04-10T06:24:36.972Z,25.1
2019-04-10T06:26:37.528Z,25
2019-04-10T06:28:38.007Z,23.6
2019-04-10T06:30:36.925Z,24.1
2019-04-10T06:32:37.708Z,22.9
2019-04-10T06:34:36.798Z,23.4
2019-04-10T06:36:37.545Z,25.1
2019-04-10T06:38:37.229Z,23.6
2019-04-10T06:40:37.669Z,21.6
2019-04-10T06:42:46.526Z,23.7
2019-04-10T06:44:36.646Z,23
2019-04-10T06:46:38.887Z,23.3
2019-04-10T06:48:36.686Z,22.3
2019-04-10T06:50:37.111Z,23.4
2019-04-10T06:52:36.723Z,22.6
2019-04-10T06:54:36.574Z,22.9
2019-04-10T06:56:37.503Z,22.5
2019-04-10T06:58:38.111Z,22.7
2019-04-10T07:00:37.028Z,22.2
2019-04-10T07:02:37.150Z,23.2
2019-04-10T07:04:46.030Z,21.3
2019-04-10T07:06:49.892Z,22.7
2019-04-10T07:08:36.693Z,22.9
2019-04-10T07:10:47.941Z,23.2
2019-04-10T07:12:37.516Z,22.6
2019-04-10T07:14:37.999Z,23.9
2019-04-10T07:16:37.338Z,23.8
2019-04-10T07:18:38.217Z,24.8
2019-04-10T07:20:37.783Z,24.6
2019-04-10T07:22:37.186Z,25.5
2019-04-10T07:24:41.365Z,26
2019-04-10T07:26:40.667Z,25.6
2019-04-10T07:28:38.978Z,25.5
2019-04-10T07:30:36.611Z,27
2019-04-10T07:32:41.235Z,27.1
2019-04-10T07:34:37.332Z,26.8
2019-04-10T07:36:39.918Z,27.5
2019-04-10T07:38:37.155Z,27.9
2019-04-10T07:40:36.940Z,28.2
2019-04-10T07:42:39.712Z,28.2
2019-04-10T07:44:36.471Z,27.8
2019-04-10T07:48:36.370Z,27.6
2019-04-10T07:50:37.127Z,27.9
2019-04-10T07:52:37.317Z,28
2019-04-10T07:54:36.283Z,29
2019-04-10T07:56:37.295Z,27.1
2019-04-10T07:58:36.331Z,29.5
2019-04-10T08:00:36.669Z,27.8
2019-04-10T08:04:37.386Z,28.9
2019-04-10T08:06:37.206Z,29.7
2019-04-10T08:08:36.311Z,29.1
2019-04-10T08:12:43.305Z,29.5
2019-04-10T08:14:36.179Z,30.3
2019-04-10T08:16:36.184Z,29.4
2019-04-10T08:18:37.196Z,30.9
2019-04-10T08:20:38.661Z,31.2
2019-04-10T08:22:37.099Z,39
2019-04-10T08:24:36.473Z,31.5
2019-04-10T08:26:36.702Z,32.4
2019-04-10T08:28:37.645Z,32.5
2019-04-10T08:30:36.273Z,33.4
2019-04-10T08:32:48.255Z,32.6
2019-04-10T08:36:37.165Z,33.8
2019-04-10T08:38:36.012Z,43.5
2019-04-10T08:40:36.294Z,40.7
2019-04-10T08:42:37.235Z,35.8
2019-04-10T08:44:36.166Z,36.2
2019-04-10T08:46:36.094Z,33.1
2019-04-10T08:48:36.150Z,32.6
2019-04-10T08:50:36.479Z,34.7
2019-04-10T08:52:37.245Z,32.9
2019-04-10T08:54:37.061Z,33.9
2019-04-10T08:56:36.506Z,33.6
2019-04-10T08:58:36.216Z,34
2019-04-10T09:00:36.551Z,35.9
2019-04-10T09:02:38.128Z,35.1
2019-04-10T09:04:37.006Z,35.2
2019-04-10T09:06:37.759Z,34
2019-04-10T09:08:37.196Z,34.4
2019-04-10T09:10:36.547Z,34.2
2019-04-10T09:12:36.373Z,34.5
2019-04-10T09:14:37.132Z,35.8
2019-04-10T09:16:36.475Z,35.5
2019-04-10T09:18:37.270Z,33.6
2019-04-10T09:20:38.283Z,34.1
2019-04-10T09:22:56.801Z,35.4
2019-04-10T09:24:36.451Z,34.4
2019-04-10T09:26:36.384Z,33.9
2019-04-10T09:28:36.373Z,36
2019-04-10T09:30:37.267Z,36
2019-04-10T09:32:36.914Z,36.2
2019-04-10T09:34:37.960Z,37.6
2019-04-10T09:36:37.554Z,35.1
2019-04-10T09:38:37.508Z,35.3
2019-04-10T09:40:36.671Z,36.2
2019-04-10T09:42:36.829Z,34.5
2019-04-10T09:44:37.872Z,36
2019-04-10T09:46:37.363Z,32.4
2019-04-10T09:48:37.941Z,32.2
2019-04-10T09:50:36.707Z,33.4
2019-04-10T09:52:37.622Z,32
2019-04-10T09:54:41.225Z,27.8
2019-04-10T09:56:38.573Z,27.5
2019-04-10T10:00:38.162Z,35.7
2019-04-10T10:02:37.983Z,32.7
2019-04-10T10:04:37.653Z,35.4
2019-04-10T10:06:38.433Z,33.8
2019-04-10T10:08:37.018Z,34.6
2019-04-10T10:14:37.958Z,32.4
2019-04-10T10:16:36.959Z,32.3
2019-04-10T10:18:37.313Z,33
2019-04-10T10:20:37.718Z,32.3
2019-04-10T10:22:37.105Z,31.3
2019-04-10T10:24:36.873Z,30.7
2019-04-10T10:26:38.147Z,30.3
2019-04-10T10:28:37.486Z,31.4
2019-04-10T10:40:39.373Z,30.4
2019-04-10T10:42:39.564Z,30.9
2019-04-10T10:44:36.877Z,33.7
2019-04-10T10:46:37.710Z,33.1
2019-04-10T10:48:37.921Z,33.6
2019-04-10T10:50:37.328Z,33.6
2019-04-10T10:52:36.917Z,32.3
2019-04-10T10:54:37.004Z,30.6
2019-04-10T10:56:38.220Z,31.6
2019-04-10T10:58:37.590Z,32.3
2019-04-10T11:00:36.770Z,33
2019-04-10T11:02:37.847Z,30.8
2019-04-10T11:04:37.748Z,30.4
2019-04-10T11:06:49.485Z,28.9
2019-04-10T11:08:37.343Z,29.3
2019-04-10T11:10:36.689Z,30.9
2019-04-10T11:12:38.218Z,30.5
2019-04-10T11:14:37.142Z,29.9
2019-04-10T11:16:36.705Z,29.6
2019-04-10T11:18:36.654Z,30.4
2019-04-10T11:20:36.700Z,28.7
2019-04-10T11:22:37.736Z,28.3
2019-04-10T11:24:38.318Z,28
2019-04-10T11:26:37.643Z,26.8
2019-04-10T11:32:38.029Z,28.6
2019-04-10T11:34:38.177Z,28.1
2019-04-10T11:36:36.891Z,25.4
2019-04-10T11:38:37.476Z,33.7
2019-04-10T11:40:38.886Z,35.6
2019-04-10T11:42:37.246Z,36.7
2019-04-10T11:44:38.950Z,36.1
2019-04-10T11:46:38.710Z,38.1
2019-04-10T11:48:38.960Z,36.2
2019-04-10T11:50:38.555Z,33.8
2019-04-10T11:52:44.529Z,34.5
2019-04-10T11:54:40.982Z,35.2
2019-04-10T11:56:38.369Z,35.9
2019-04-10T11:58:47.460Z,33.7
2019-04-10T12:00:46.369Z,35.2
2019-04-10T12:02:39.416Z,36.7
2019-04-10T12:04:48.386Z,38.4
2019-04-10T12:06:38.229Z,38.7
2019-04-10T12:09:04.366Z,37.6
2019-04-10T12:12:37.600Z,36.2
2019-04-10T12:14:37.374Z,34.8
2019-04-10T12:16:36.910Z,34.3
2019-04-10T12:18:36.616Z,34.3
2019-04-10T12:20:37.489Z,34.7
2019-04-10T12:22:36.587Z,34.9
2019-04-10T12:24:36.488Z,35.2
2019-04-10T12:26:36.458Z,36
2019-04-10T12:28:38.097Z,36.9
2019-04-10T12:30:37.375Z,36
2019-04-10T12:32:36.716Z,37.9
2019-04-10T12:34:36.352Z,37.2
2019-04-10T12:36:36.418Z,38.6
2019-04-10T12:38:36.069Z,40.7
2019-04-10T12:40:37.951Z,42.9
2019-04-10T12:42:36.550Z,44.7
2019-04-10T12:44:36.057Z,41.9
2019-04-10T12:46:35.990Z,41
2019-04-10T12:48:36.861Z,39.6
2019-04-10T12:50:35.769Z,38.4
2019-04-10T12:52:36.286Z,40.6
2019-04-10T12:54:35.698Z,42.2
2019-04-10T12:56:35.554Z,40.2
2019-04-10T12:58:37.101Z,41.3
2019-04-10T13:00:36.060Z,41.6
2019-04-10T13:02:36.474Z,42.2
2019-04-10T13:04:36.491Z,42.5
2019-04-10T13:06:35.241Z,41.8
2019-04-10T13:08:54.673Z,38.8
2019-04-10T13:10:36.161Z,38.6
2019-04-10T13:12:35.454Z,27.9
2019-04-10T13:14:35.010Z,20.6
2019-04-10T13:16:34.902Z,21.6
2019-04-10T13:18:34.796Z,19.1
2019-04-10T13:20:34.703Z,19.8
2019-04-10T13:22:34.718Z,20.6
2019-04-10T13:24:35.387Z,20.6
2019-04-10T13:26:34.301Z,20.8
2019-04-10T13:28:34.187Z,19.2
2019-04-10T13:30:46.656Z,19.3
2019-04-10T13:32:34.070Z,18.8
2019-04-10T13:34:33.849Z,19.3
2019-04-10T13:36:33.851Z,18.4
2019-04-10T13:38:35.236Z,19.1
2019-04-10T13:40:33.522Z,18.3
2019-04-10T13:42:33.532Z,18.6
2019-04-10T13:44:33.311Z,18.3
2019-04-10T13:46:33.950Z,19.3
2019-04-10T13:48:33.427Z,19.7
2019-04-10T13:50:32.905Z,19.2
2019-04-10T13:52:32.897Z,19.2
2019-04-10T13:54:32.809Z,19.7
2019-04-10T13:56:32.925Z,19.4
2019-04-10T13:58:33.215Z,19.3
2019-04-10T14:00:33.540Z,20.5
2019-04-10T14:02:32.415Z,19.5
2019-04-10T14:04:33.292Z,20.4
2019-04-10T14:06:32.115Z,18.8
2019-04-10T14:08:48.237Z,19.7
2019-04-10T14:10:31.957Z,20
2019-04-10T14:12:33.449Z,20.1
2019-04-10T14:14:31.554Z,19.1
2019-04-10T14:16:31.517Z,19.7
2019-04-10T14:18:31.432Z,20.2
2019-04-10T14:20:31.339Z,18.1
2019-04-10T14:22:31.488Z,19.3
2019-04-10T14:24:40.368Z,18.3
2019-04-10T14:26:41.979Z,17.7
2019-04-10T14:28:31.274Z,18.7
2019-04-10T14:30:31.365Z,17.9
2019-04-10T14:32:31.374Z,17.6
2019-04-10T14:34:31.382Z,18.2
2019-04-10T14:36:30.430Z,16.8
2019-04-10T14:38:30.754Z,18.6
2019-04-10T14:40:30.520Z,16
2019-04-10T14:42:30.637Z,16.4
2019-04-10T14:46:29.757Z,17.9
2019-04-10T14:48:30.205Z,17.7
2019-04-10T14:50:29.534Z,17.7
2019-04-10T14:52:29.531Z,17.6
2019-04-10T14:54:30.100Z,17.1
2019-04-10T14:56:30.371Z,16.8
2019-04-10T14:58:31.339Z,17.6
2019-04-10T15:00:29.185Z,17.3
2019-04-10T15:02:28.965Z,16.5
2019-04-10T15:04:28.937Z,17
2019-04-10T15:06:29.332Z,15.1
2019-04-10T15:08:28.743Z,15.9
2019-04-10T15:10:28.589Z,15.5
2019-04-10T15:12:30.239Z,14.8
2019-04-10T15:14:28.230Z,15.1
2019-04-10T15:16:29.279Z,16.7
2019-04-10T15:18:28.826Z,16.3
2019-04-10T15:20:27.897Z,16.8
2019-04-10T15:24:28.005Z,17.9
2019-04-10T15:26:28.166Z,18
2019-04-10T15:29:49.112Z,17.5
2019-04-10T15:30:28.465Z,18.2
2019-04-10T15:33:31.831Z,18.5
2019-04-10T15:34:28.226Z,19
2019-04-10T15:36:28.307Z,19.7
2019-04-10T15:38:27.175Z,20
2019-04-10T15:40:27.674Z,20
2019-04-10T15:42:26.731Z,19.7
2019-04-10T15:44:26.409Z,18.5
2019-04-10T15:46:26.911Z,19.2
2019-04-10T15:48:29.455Z,19.4
2019-04-10T15:50:26.402Z,20.5
2019-04-10T15:52:27.045Z,21.3
2019-04-10T15:54:27.004Z,20.8
2019-04-10T15:56:25.689Z,20.8
2019-04-10T15:58:25.724Z,20
2019-04-10T16:00:25.692Z,19.8
2019-04-10T16:02:25.873Z,18.6
2019-04-10T16:04:25.541Z,21.4
2019-04-10T16:08:26.022Z,20.7
2019-04-10T16:10:25.726Z,20
2019-04-10T16:12:24.880Z,21.1
2019-04-10T16:14:27.308Z,20.2
2019-04-10T16:16:25.420Z,20.8
2019-04-10T16:18:24.185Z,20.6
2019-04-10T16:20:25.246Z,22.1
2019-04-10T16:22:23.998Z,22.1
2019-04-10T16:24:24.820Z,21.6
2019-04-10T16:26:23.740Z,22.1
2019-04-10T16:28:23.512Z,22.9
2019-04-10T16:30:24.164Z,21.9
2019-04-10T16:32:24.417Z,23.4
2019-04-10T16:34:23.092Z,23.9
2019-04-10T16:36:23.499Z,23.4
2019-04-10T16:38:24.747Z,24.5
2019-04-10T16:40:22.739Z,25.7
2019-04-10T16:42:24.222Z,26.1
2019-04-10T16:44:22.411Z,27.8
2019-04-10T16:46:22.295Z,28.1
2019-04-10T16:48:22.186Z,28.8
2019-04-10T16:50:22.033Z,28.1
2019-04-10T16:54:22.002Z,28.6
2019-04-10T16:56:21.519Z,29.1
2019-04-10T16:58:21.389Z,29.2
2019-04-10T17:00:22.241Z,28.5
2019-04-10T17:04:21.046Z,29.4
2019-04-10T17:06:21.709Z,29.3
2019-04-10T17:08:21.739Z,27.8
2019-04-10T17:10:24.410Z,26.9
2019-04-10T17:12:20.394Z,25.9
2019-04-10T17:14:20.864Z,26.4
2019-04-10T17:16:20.080Z,26
2019-04-10T17:18:21.151Z,26.6
2019-04-10T17:20:20.402Z,25
2019-04-10T17:22:31.051Z,25.8
2019-04-10T17:24:20.811Z,25.3
2019-04-10T17:26:19.369Z,26
2019-04-10T17:28:22.049Z,26.3
2019-04-10T17:30:19.967Z,27.3
2019-04-10T17:32:19.331Z,27.2
2019-04-10T17:34:18.787Z,29.1
2019-04-10T17:36:19.180Z,27.9
2019-04-10T17:38:18.502Z,30.2
2019-04-10T17:40:29.760Z,30.8
2019-04-10T17:42:18.141Z,31.7
2019-04-10T17:44:18.043Z,32
2019-04-10T17:46:17.843Z,31.6
2019-04-10T17:48:18.212Z,32
2019-04-10T17:52:17.217Z,32.7
2019-04-10T17:54:17.883Z,33.6
2019-04-10T17:56:16.881Z,32.5
2019-04-10T17:58:17.518Z,30.6
2019-04-10T18:00:18.738Z,29.9
2019-04-10T18:02:16.302Z,27.8
2019-04-10T18:04:16.196Z,28.7
2019-04-10T18:06:17.298Z,28.1
2019-04-10T18:08:16.678Z,27.4
2019-04-10T18:12:16.300Z,29.1
2019-04-10T18:14:15.370Z,27.6
2019-04-10T18:16:15.055Z,27.1
2019-04-10T18:18:15.771Z,27.5
2019-04-10T18:20:15.698Z,25.3
2019-04-10T18:24:14.456Z,21.6
2019-04-10T18:26:14.229Z,22
2019-04-10T18:28:13.964Z,22
2019-04-10T18:30:14.574Z,22.1
2019-04-10T18:34:14.168Z,23.8
2019-04-10T18:36:13.478Z,23.1
2019-04-10T18:38:13.327Z,22.5
2019-04-10T18:40:12.938Z,20.6
2019-04-10T18:42:13.867Z,17.9
2019-04-10T18:44:12.949Z,17.8
2019-04-10T18:46:15.080Z,18.6
2019-04-10T18:48:12.185Z,19.7
2019-04-10T18:50:12.107Z,20.1
2019-04-10T18:52:12.826Z,19.6
2019-04-10T18:54:12.450Z,21.5
2019-04-10T18:56:11.315Z,21
2019-04-10T18:58:11.619Z,16.9
2019-04-10T19:00:12.315Z,17.6
2019-04-10T19:02:11.762Z,17
2019-04-10T19:04:10.581Z,17
2019-04-10T19:06:10.459Z,17.1
2019-04-10T19:08:12.812Z,17.9
2019-04-10T19:10:11.168Z,17.6
2019-04-10T19:12:10.804Z,17.9
2019-04-10T19:14:09.621Z,17.6
2019-04-10T19:16:09.463Z,19
2019-04-10T19:18:11.085Z,19.3
2019-04-10T19:20:10.929Z,19.4
2019-04-10T19:22:09.888Z,19.8
2019-04-10T19:26:10.948Z,20.2
2019-04-10T19:28:08.631Z,19.6
2019-04-10T19:30:08.353Z,19.8
2019-04-10T19:32:08.006Z,16.5
2019-04-10T19:34:07.601Z,16.3
2019-04-10T19:36:07.884Z,16.3
2019-04-10T19:38:07.408Z,13.7
2019-04-10T19:40:08.976Z,14.9
2019-04-10T19:42:06.987Z,15.1
2019-04-10T19:44:06.528Z,15
2019-04-10T19:46:06.265Z,14.8
2019-04-10T19:48:06.818Z,13.7
2019-04-10T19:50:07.037Z,14.6
2019-04-10T19:52:06.443Z,14.9
2019-04-10T19:54:07.289Z,12.4
2019-04-10T19:56:05.147Z,13.3
2019-04-10T19:58:05.956Z,12.7
2019-04-10T20:00:06.414Z,12.5
2019-04-10T20:02:04.512Z,13.1
2019-04-10T20:04:04.338Z,13.8
2019-04-10T20:06:05.843Z,13.1
2019-04-10T20:08:05.221Z,12.8
2019-04-10T20:10:07.395Z,14
2019-04-10T20:12:04.426Z,14
2019-04-10T20:14:04.115Z,13.8
2019-04-10T20:16:03.026Z,14
2019-04-10T20:18:04.297Z,15.4
2019-04-10T20:20:02.997Z,14.1
2019-04-10T20:22:02.268Z,14.4
2019-04-10T20:24:02.753Z,14.7
2019-04-10T20:26:02.069Z,15.1
2019-04-10T20:28:02.545Z,14.4
2019-04-10T20:30:01.987Z,14.1
2019-04-10T20:32:01.707Z,13.5
2019-04-10T20:34:00.694Z,15.3
2019-04-10T20:36:01.088Z,15.4
2019-04-10T20:38:01.023Z,15.2
2019-04-10T20:40:01.219Z,14.5
2019-04-10T20:42:01.007Z,14.7
2019-04-10T20:43:59.593Z,13.9
2019-04-10T20:46:00.123Z,13.7
2019-04-10T20:48:00.245Z,13.3
2019-04-10T20:49:59.585Z,13.8
2019-04-10T20:51:58.870Z,13.5
2019-04-10T20:53:58.384Z,14
2019-04-10T20:57:57.879Z,14.4
2019-04-10T21:01:59.834Z,14.4
2019-04-10T21:03:57.175Z,14
2019-04-10T21:05:56.972Z,14.2
2019-04-10T21:07:56.856Z,14
2019-04-10T21:09:56.624Z,14.7
2019-04-10T21:12:01.981Z,13.2
2019-04-10T21:13:56.607Z,12.2
2019-04-10T21:15:56.409Z,12
2019-04-10T21:19:55.987Z,13.4
2019-04-10T21:21:55.338Z,13.1
2019-04-10T21:23:54.877Z,12.5
2019-04-10T21:25:55.371Z,12.6
2019-04-10T21:27:55.068Z,14.2
2019-04-10T21:29:54.811Z,14.1
2019-04-10T21:31:53.922Z,13.4
2019-04-10T21:33:54.686Z,13.2
2019-04-10T21:35:54.179Z,13.5
2019-04-10T21:37:53.156Z,13.6
2019-04-10T21:39:54.127Z,15.8
2019-04-10T21:41:53.517Z,14
2019-04-10T21:43:52.431Z,13.2
2019-04-10T21:45:52.195Z,13.5
2019-04-10T21:47:52.300Z,12.6
2019-04-10T21:49:53.304Z,13.5
2019-04-10T21:51:51.689Z,14.7
2019-04-10T21:53:51.869Z,12.4
2019-04-10T21:55:51.444Z,12
2019-04-10T21:57:51.034Z,13
2019-04-10T21:59:51.636Z,12.1
2019-04-10T22:01:50.812Z,12.7
2019-04-10T22:03:50.012Z,12.4
2019-04-10T22:05:51.308Z,12.4
2019-04-10T22:07:50.285Z,13.1
2019-04-10T22:09:49.287Z,12.5
2019-04-10T22:11:49.724Z,13.7
2019-04-10T22:13:48.686Z,12.8
2019-04-10T22:15:49.090Z,13.4
2019-04-10T22:17:48.184Z,12.5
2019-04-10T22:19:47.992Z,12.7
2019-04-10T22:21:48.158Z,12.4
2019-04-10T22:23:47.409Z,12.7
2019-04-10T22:25:47.958Z,10.1
2019-04-10T22:27:47.766Z,12.5
2019-04-10T22:29:46.928Z,12.5
2019-04-10T22:31:46.411Z,12.2
2019-04-10T22:33:46.814Z,12
2019-04-10T22:35:46.429Z,12.1
2019-04-10T22:37:46.330Z,12.5
2019-04-10T22:39:45.316Z,11.9
2019-04-10T22:41:46.217Z,12.6
2019-04-10T22:43:45.010Z,12.3
2019-04-10T22:45:44.528Z,12.6
2019-04-10T22:47:45.136Z,12.4
2019-04-10T22:49:45.086Z,12.4
2019-04-10T22:51:43.967Z,12.5
2019-04-10T22:53:43.756Z,11.6
2019-04-10T22:55:44.324Z,12.2
2019-04-10T22:57:42.980Z,12.5
2019-04-10T22:59:42.754Z,13
2019-04-10T23:01:43.259Z,12.7
2019-04-10T23:03:43.185Z,14.1
2019-04-10T23:05:42.855Z,14.2
2019-04-10T23:07:41.708Z,13.1
2019-04-10T23:09:41.448Z,13.1
2019-04-10T23:11:43.521Z,12.6
2019-04-10T23:13:40.957Z,12.8
2019-04-10T23:15:41.771Z,13.4
2019-04-10T23:17:41.041Z,12.7
2019-04-10T23:19:40.438Z,12.4
2019-04-10T23:21:40.832Z,13.2
2019-04-10T23:23:39.789Z,13
2019-04-10T23:25:40.475Z,12.4
2019-04-10T23:27:39.253Z,12.5
2019-04-10T23:29:40.128Z,12.7
2019-04-10T23:31:39.519Z,12.8
2019-04-10T23:33:39.802Z,13.2
2019-04-10T23:35:38.303Z,11.9
2019-04-10T23:37:39.161Z,12
2019-04-10T23:39:38.519Z,12.7
2019-04-10T23:43:37.820Z,12.1
2019-04-10T23:45:37.800Z,11.9
2019-04-10T23:47:37.042Z,11.7
2019-04-10T23:49:37.387Z,11.8
2019-04-10T23:51:36.932Z,11.8
2019-04-10T23:53:36.284Z,11.9
2019-04-10T23:55:35.826Z,11.6
2019-04-10T23:57:35.726Z,11.8
2019-04-10T23:59:35.254Z,10.9
